createdAt,value
2023-02-05T00:01:57.202Z,62.64
2023-02-05T00:04:24.458Z,62.73
2023-02-05T00:06:51.635Z,62.77
2023-02-05T00:09:18.679Z,62.86
2023-02-05T00:11:45.665Z,63.05
2023-02-05T00:14:12.838Z,62.61
2023-02-05T00:16:40.018Z,62.80
2023-02-05T00:19:07.079Z,63.27
2023-02-05T00:21:34.246Z,63.14
2023-02-05T00:24:01.278Z,62.87
2023-02-05T00:26:28.355Z,63.55
2023-02-05T00:28:55.481Z,63.74
2023-02-05T00:31:23.723Z,63.37
2023-02-05T00:33:52.319Z,63.21
2023-02-05T00:36:21.235Z,63.36
2023-02-05T00:38:48.783Z,63.48
2023-02-05T00:41:16.807Z,63.28
2023-02-05T00:43:44.475Z,63.17
2023-02-05T00:46:13.284Z,63.35
2023-02-05T00:48:41.591Z,63.28
2023-02-05T00:51:10.088Z,62.84
2023-02-05T00:53:37.536Z,62.99
2023-02-05T00:56:05.312Z,63.55
2023-02-05T00:58:32.636Z,63.27
2023-02-05T01:00:59.769Z,63.00
2023-02-05T01:03:26.847Z,62.59
2023-02-05T01:05:53.903Z,62.63
2023-02-05T01:08:20.983Z,63.06
2023-02-05T01:10:50.343Z,63.13
2023-02-05T01:13:19.193Z,63.10
2023-02-05T01:15:46.834Z,63.03
2023-02-05T01:18:14.387Z,63.11
2023-02-05T01:20:42.828Z,63.13
2023-02-05T01:23:11.585Z,62.94
2023-02-05T01:25:39.294Z,62.71
2023-02-05T01:28:07.033Z,62.44
2023-02-05T01:30:35.631Z,62.68
2023-02-05T01:33:03.617Z,62.49
2023-02-05T01:35:30.770Z,62.42
2023-02-05T01:37:57.849Z,62.68
2023-02-05T01:40:24.946Z,62.80
2023-02-05T01:42:52.060Z,62.67
2023-02-05T01:45:22.018Z,62.51
2023-02-05T01:47:56.188Z,62.63
2023-02-05T01:50:40.347Z,62.57
2023-02-05T01:53:19.045Z,62.26
2023-02-05T01:55:54.226Z,62.34
2023-02-05T01:58:21.643Z,61.93
2023-02-05T02:00:48.966Z,61.71
2023-02-05T02:03:16.342Z,62.14
2023-02-05T02:05:43.501Z,62.09
2023-02-05T02:08:13.524Z,61.93
2023-02-05T02:10:43.559Z,61.95
2023-02-05T02:13:12.514Z,62.04
2023-02-05T02:15:41.203Z,61.88
2023-02-05T02:18:27.350Z,61.73
2023-02-05T02:21:13.394Z,62.29
2023-02-05T02:24:36.881Z,62.27
2023-02-05T02:27:18.645Z,62.20
2023-02-05T02:29:58.867Z,61.91
2023-02-05T02:33:04.319Z,61.65
2023-02-05T02:35:57.749Z,61.80
2023-02-05T02:39:01.114Z,61.75
2023-02-05T02:42:02.255Z,61.97
2023-02-05T02:44:44.803Z,61.62
2023-02-05T02:47:26.889Z,61.42
2023-02-05T02:50:10.354Z,61.47
2023-02-05T02:52:44.038Z,61.88
2023-02-05T02:55:15.807Z,61.66
2023-02-05T02:57:45.793Z,61.95
2023-02-05T03:00:20.402Z,61.63
2023-02-05T03:02:50.396Z,61.53
2023-02-05T03:05:21.738Z,61.17
2023-02-05T03:07:56.984Z,61.50
2023-02-05T03:10:44.510Z,61.69
2023-02-05T03:13:12.530Z,61.33
2023-02-05T03:15:43.865Z,61.16
2023-02-05T03:18:13.906Z,61.52
2023-02-05T03:21:16.698Z,61.64
2023-02-05T03:23:44.374Z,61.60
2023-02-05T03:26:33.016Z,62.07
2023-02-05T03:29:04.974Z,61.91
2023-02-05T03:32:00.176Z,61.92
2023-02-05T03:34:51.652Z,61.81
2023-02-05T03:37:27.572Z,62.02
2023-02-05T03:40:06.215Z,61.60
2023-02-05T03:43:12.768Z,61.71
2023-02-05T03:46:27.387Z,61.78
2023-02-05T03:49:05.284Z,61.65
2023-02-05T03:51:48.646Z,61.60
2023-02-05T03:54:26.262Z,61.53
2023-02-05T03:57:21.440Z,61.41
2023-02-05T03:59:50.232Z,61.12
2023-02-05T04:02:19.021Z,61.34
2023-02-05T04:04:46.209Z,61.68
2023-02-05T04:07:13.579Z,61.26
2023-02-05T04:09:40.619Z,61.33
2023-02-05T04:12:07.808Z,61.23
2023-02-05T04:14:34.854Z,61.44
2023-02-05T04:17:01.968Z,61.49
2023-02-05T04:19:29.068Z,62.00
2023-02-05T04:21:56.048Z,61.56
2023-02-05T04:24:23.193Z,61.73
2023-02-05T04:26:51.055Z,61.38
2023-02-05T04:29:18.042Z,61.50
2023-02-05T04:31:45.133Z,61.49
2023-02-05T04:34:12.347Z,61.70
2023-02-05T04:36:39.680Z,61.38
2023-02-05T04:39:06.729Z,61.40
2023-02-05T04:41:33.873Z,61.64
2023-02-05T04:44:00.872Z,61.69
2023-02-05T04:46:27.869Z,61.40
2023-02-05T04:48:54.875Z,61.70
2023-02-05T04:51:21.879Z,61.86
2023-02-05T04:53:48.893Z,61.64
2023-02-05T04:56:18.041Z,61.66
2023-02-05T04:58:46.216Z,61.79
2023-02-05T05:01:20.265Z,61.41
2023-02-05T05:03:47.938Z,61.80
2023-02-05T05:06:17.648Z,62.06
2023-02-05T05:08:44.989Z,61.59
2023-02-05T05:11:16.241Z,61.96
2023-02-05T05:13:44.192Z,61.89
2023-02-05T05:16:12.344Z,61.72
2023-02-05T05:18:40.456Z,61.44
2023-02-05T05:21:08.427Z,61.33
2023-02-05T05:23:36.780Z,61.67
2023-02-05T05:26:09.714Z,61.65
2023-02-05T05:28:37.513Z,61.47
2023-02-05T05:31:11.424Z,62.02
2023-02-05T05:33:38.907Z,62.01
2023-02-05T05:36:07.253Z,61.61
2023-02-05T05:38:34.645Z,61.84
2023-02-05T05:41:20.488Z,62.05
2023-02-05T05:43:47.793Z,62.28
2023-02-05T05:46:33.720Z,61.82
2023-02-05T05:49:02.524Z,61.98
2023-02-05T05:51:31.143Z,62.36
2023-02-05T05:53:58.261Z,62.27
2023-02-05T05:56:25.320Z,62.35
2023-02-05T05:58:52.738Z,62.39
2023-02-05T06:01:22.104Z,62.05
2023-02-05T06:03:50.384Z,61.96
2023-02-05T06:06:17.521Z,62.32
2023-02-05T06:08:44.666Z,62.12
2023-02-05T06:11:12.142Z,61.77
2023-02-05T06:13:39.245Z,62.42
2023-02-05T06:16:06.795Z,61.91
2023-02-05T06:18:34.098Z,62.25
2023-02-05T06:21:02.278Z,62.10
2023-02-05T06:23:29.352Z,61.91
2023-02-05T06:25:56.364Z,61.65
2023-02-05T06:28:23.375Z,62.27
2023-02-05T06:30:50.674Z,61.71
2023-02-05T06:33:17.746Z,61.75
2023-02-05T06:35:44.777Z,61.66
2023-02-05T06:38:11.786Z,62.43
2023-02-05T06:40:38.907Z,61.87
2023-02-05T06:43:06.182Z,61.72
2023-02-05T06:45:33.515Z,61.37
2023-02-05T06:48:01.545Z,61.47
2023-02-05T06:50:28.568Z,61.42
2023-02-05T06:52:55.667Z,61.74
2023-02-05T06:55:22.831Z,61.53
2023-02-05T06:57:49.919Z,61.56
2023-02-05T07:00:17.576Z,61.43
2023-02-05T07:02:44.758Z,61.21
2023-02-05T07:05:11.862Z,61.14
2023-02-05T07:07:39.752Z,61.06
2023-02-05T07:10:07.122Z,60.90
2023-02-05T07:12:34.295Z,60.70
2023-02-05T07:15:01.382Z,60.81
2023-02-05T07:17:28.428Z,60.70
2023-02-05T07:19:55.525Z,60.46
2023-02-05T07:22:22.617Z,60.41
2023-02-05T07:24:49.651Z,60.41
2023-02-05T07:27:16.936Z,60.25
2023-02-05T07:29:43.954Z,59.63
2023-02-05T07:32:11.148Z,59.90
2023-02-05T07:34:38.446Z,59.02
2023-02-05T07:37:05.481Z,58.25
2023-02-05T07:39:33.490Z,58.43
2023-02-05T07:42:01.235Z,58.04
2023-02-05T07:44:28.340Z,58.02
2023-02-05T07:46:55.634Z,57.48
2023-02-05T07:49:23.102Z,57.59
2023-02-05T07:51:50.097Z,57.01
2023-02-05T07:54:17.174Z,56.47
2023-02-05T07:56:44.234Z,56.10
2023-02-05T07:59:13.502Z,55.61
2023-02-05T08:01:40.640Z,55.43
2023-02-05T08:04:08.070Z,55.47
2023-02-05T08:06:35.499Z,55.09
2023-02-05T08:09:02.759Z,55.13
2023-02-05T08:11:32.307Z,54.96
2023-02-05T08:14:00.638Z,54.80
2023-02-05T08:16:27.740Z,54.25
2023-02-05T08:18:54.775Z,54.14
2023-02-05T08:21:22.050Z,54.42
2023-02-05T08:23:49.685Z,54.56
2023-02-05T08:26:17.933Z,54.60
2023-02-05T08:28:46.088Z,54.62
2023-02-05T08:31:17.572Z,54.54
2023-02-05T08:33:45.836Z,54.78
2023-02-05T08:36:12.853Z,54.75
2023-02-05T08:38:39.858Z,54.70
2023-02-05T08:41:12.809Z,54.49
2023-02-05T08:43:46.822Z,54.43
2023-02-05T08:46:17.679Z,54.33
2023-02-05T08:48:45.290Z,54.57
2023-02-05T08:51:15.189Z,54.62
2023-02-05T08:53:42.806Z,53.83
2023-02-05T08:56:10.804Z,53.67
2023-02-05T08:58:39.254Z,53.43
2023-02-05T09:01:15.305Z,53.06
2023-02-05T09:03:42.927Z,51.97
2023-02-05T09:06:15.146Z,51.30
2023-02-05T09:08:42.918Z,50.67
2023-02-05T09:11:10.813Z,50.18
2023-02-05T09:13:38.445Z,49.26
2023-02-05T09:16:05.706Z,48.90
2023-02-05T09:18:32.694Z,48.92
2023-02-05T09:20:59.748Z,49.70
2023-02-05T09:23:26.802Z,50.17
2023-02-05T09:25:53.878Z,50.11
2023-02-05T09:28:20.904Z,49.98
2023-02-05T09:30:48.004Z,49.40
2023-02-05T09:33:15.070Z,49.12
2023-02-05T09:35:43.029Z,49.50
2023-02-05T09:38:14.759Z,49.38
2023-02-05T09:41:01.609Z,49.33
2023-02-05T09:43:57.782Z,49.83
2023-02-05T09:46:49.507Z,49.38
2023-02-05T09:49:42.347Z,48.65
2023-02-05T09:52:19.698Z,48.74
2023-02-05T09:55:19.724Z,49.43
2023-02-05T09:57:46.797Z,49.83
2023-02-05T10:00:43.778Z,49.92
2023-02-05T10:03:28.616Z,50.37
2023-02-05T10:06:11.284Z,49.91
2023-02-05T10:09:05.370Z,50.26
2023-02-05T10:11:52.839Z,49.87
2023-02-05T10:14:26.729Z,49.98
2023-02-05T10:17:33.770Z,49.70
2023-02-05T10:20:35.363Z,49.66
2023-02-05T10:23:16.999Z,49.97
2023-02-05T10:26:15.812Z,49.71
2023-02-05T10:28:55.517Z,49.54
2023-02-05T10:31:42.261Z,49.43
2023-02-05T10:34:36.445Z,49.41
2023-02-05T10:37:12.100Z,49.29
2023-02-05T10:39:39.491Z,48.80
2023-02-05T10:42:40.992Z,48.50
2023-02-05T10:45:21.325Z,48.57
2023-02-05T10:48:25.532Z,48.37
2023-02-05T10:50:58.179Z,48.86
2023-02-05T10:53:27.613Z,48.97
2023-02-05T10:55:56.447Z,48.71
2023-02-05T10:58:52.002Z,48.80
2023-02-05T11:01:32.780Z,48.97
2023-02-05T11:04:15.190Z,48.62
2023-02-05T11:06:51.473Z,48.15
2023-02-05T11:09:24.248Z,48.80
2023-02-05T11:12:00.842Z,48.59
2023-02-05T11:14:36.332Z,48.66
2023-02-05T11:17:37.559Z,48.41
2023-02-05T11:20:17.470Z,49.20
2023-02-05T11:22:46.332Z,49.15
2023-02-05T11:25:21.425Z,49.32
2023-02-05T11:28:04.074Z,49.52
2023-02-05T11:30:50.114Z,49.40
2023-02-05T11:33:27.780Z,49.77
2023-02-05T11:36:21.551Z,50.25
2023-02-05T11:38:57.805Z,49.61
2023-02-05T11:41:31.136Z,49.64
2023-02-05T11:44:01.003Z,49.54
2023-02-05T11:46:35.058Z,49.29
2023-02-05T11:49:05.089Z,48.92
2023-02-05T11:51:52.995Z,49.19
2023-02-05T11:54:34.312Z,49.20
2023-02-05T11:57:22.250Z,48.58
2023-02-05T12:00:20.277Z,48.22
2023-02-05T12:02:53.879Z,48.38
2023-02-05T12:05:28.874Z,47.97
2023-02-05T12:08:03.218Z,48.29
2023-02-05T12:11:53.132Z,47.86
2023-02-05T12:14:43.878Z,47.27
2023-02-05T12:17:19.830Z,47.23
2023-02-05T12:20:17.849Z,47.65
2023-02-05T12:23:22.608Z,47.59
2023-02-05T12:26:30.708Z,47.41
2023-02-05T12:29:23.803Z,47.80
2023-02-05T12:32:21.524Z,48.16
2023-02-05T12:35:03.936Z,47.38
2023-02-05T12:38:31.468Z,47.36
2023-02-05T12:41:20.982Z,46.73
2023-02-05T12:43:50.214Z,46.34
2023-02-05T12:46:57.178Z,46.20
2023-02-05T12:49:42.984Z,46.55
2023-02-05T12:52:39.108Z,45.82
2023-02-05T12:55:41.001Z,45.85
2023-02-05T12:58:13.088Z,46.01
2023-02-05T13:00:46.035Z,45.74
2023-02-05T13:03:36.466Z,45.62
2023-02-05T13:06:14.470Z,46.01
2023-02-05T13:08:52.141Z,45.92
2023-02-05T13:11:36.411Z,45.48
2023-02-05T13:14:52.863Z,45.91
2023-02-05T13:17:31.133Z,45.99
2023-02-05T13:20:50.783Z,45.58
2023-02-05T13:23:37.530Z,45.43
2023-02-05T13:26:27.568Z,45.18
2023-02-05T13:28:59.688Z,45.26
2023-02-05T13:31:49.000Z,45.58
2023-02-05T13:34:17.810Z,45.77
2023-02-05T13:37:15.326Z,45.67
2023-02-05T13:40:29.709Z,45.53
2023-02-05T13:43:07.048Z,45.55
2023-02-05T13:45:56.597Z,45.68
2023-02-05T13:48:42.228Z,45.54
2023-02-05T13:51:38.983Z,45.79
2023-02-05T13:54:33.592Z,45.47
2023-02-05T13:57:48.278Z,45.99
2023-02-05T14:00:16.955Z,46.05
2023-02-05T14:02:49.465Z,46.76
2023-02-05T14:05:27.334Z,47.41
2023-02-05T14:07:57.763Z,47.07
2023-02-05T14:10:32.395Z,47.16
2023-02-05T14:13:25.462Z,47.13
2023-02-05T14:15:57.559Z,47.27
2023-02-05T14:18:48.526Z,47.33
2023-02-05T14:21:30.503Z,47.14
2023-02-05T14:24:25.369Z,47.30
2023-02-05T14:26:59.638Z,47.11
2023-02-05T14:29:48.205Z,47.22
2023-02-05T14:32:27.494Z,47.13
2023-02-05T14:35:40.104Z,47.32
2023-02-05T14:38:33.536Z,46.78
2023-02-05T14:41:13.768Z,47.52
2023-02-05T14:43:44.200Z,47.64
2023-02-05T14:46:44.477Z,47.27
2023-02-05T14:49:24.961Z,47.60
2023-02-05T14:52:17.864Z,47.57
2023-02-05T14:55:02.397Z,47.70
2023-02-05T14:57:54.424Z,47.82
2023-02-05T15:00:26.168Z,47.51
2023-02-05T15:03:05.981Z,48.12
2023-02-05T15:05:53.957Z,47.94
2023-02-05T15:08:36.006Z,47.75
2023-02-05T15:11:22.960Z,47.94
2023-02-05T15:14:19.502Z,47.96
2023-02-05T15:17:07.376Z,48.39
2023-02-05T15:19:51.625Z,48.49
2023-02-05T15:22:36.735Z,48.59
2023-02-05T15:25:16.797Z,48.51
2023-02-05T15:27:54.392Z,48.49
2023-02-05T15:30:28.414Z,48.49
2023-02-05T15:33:08.401Z,48.23
2023-02-05T15:35:37.689Z,48.45
2023-02-05T15:38:27.380Z,49.03
2023-02-05T15:40:54.663Z,48.81
2023-02-05T15:43:27.149Z,49.03
2023-02-05T15:46:05.518Z,49.17
2023-02-05T15:48:35.471Z,49.34
2023-02-05T15:51:05.296Z,49.68
2023-02-05T15:53:43.027Z,49.52
2023-02-05T15:56:14.825Z,49.78
2023-02-05T15:58:54.923Z,50.79
2023-02-05T16:01:31.777Z,51.50
2023-02-05T16:03:59.354Z,52.38
2023-02-05T16:06:30.084Z,53.24
2023-02-05T16:08:57.734Z,53.38
2023-02-05T16:11:35.340Z,53.49
2023-02-05T16:14:15.298Z,53.88
2023-02-05T16:17:19.583Z,53.80
2023-02-05T16:20:19.956Z,53.40
2023-02-05T16:23:09.145Z,52.31
2023-02-05T16:25:47.305Z,52.07
2023-02-05T16:28:23.284Z,51.86
2023-02-05T16:30:55.266Z,51.91
2023-02-05T16:33:28.016Z,51.47
2023-02-05T16:35:56.587Z,51.32
2023-02-05T16:38:23.788Z,51.07
2023-02-05T16:40:54.932Z,51.07
2023-02-05T16:43:39.653Z,52.19
2023-02-05T16:46:06.554Z,52.46
2023-02-05T16:48:46.807Z,52.80
2023-02-05T16:51:45.359Z,52.68
2023-02-05T16:54:12.345Z,52.13
2023-02-05T16:57:04.832Z,51.91
2023-02-05T17:00:06.462Z,52.06
2023-02-05T17:02:41.778Z,51.47
2023-02-05T17:05:36.484Z,51.52
2023-02-05T17:08:06.976Z,51.69
2023-02-05T17:10:59.576Z,51.99
2023-02-05T17:13:32.369Z,51.87
2023-02-05T17:16:29.892Z,52.44
2023-02-05T17:18:57.881Z,51.97
2023-02-05T17:21:27.149Z,52.32
2023-02-05T17:23:57.167Z,52.51
2023-02-05T17:26:26.194Z,52.77
2023-02-05T17:28:59.961Z,52.81
2023-02-05T17:31:29.231Z,52.44
2023-02-05T17:33:58.994Z,52.49
2023-02-05T17:36:26.665Z,52.83
2023-02-05T17:38:54.411Z,53.14
2023-02-05T17:41:46.417Z,53.26
2023-02-05T17:44:17.856Z,53.63
2023-02-05T17:46:45.213Z,53.61
2023-02-05T17:49:12.302Z,54.01
2023-02-05T17:51:42.693Z,54.25
2023-02-05T17:54:19.833Z,54.66
2023-02-05T17:56:48.409Z,54.53
2023-02-05T17:59:19.925Z,54.91
2023-02-05T18:01:48.980Z,54.61
2023-02-05T18:04:18.562Z,54.83
2023-02-05T18:06:49.037Z,55.38
2023-02-05T18:09:16.582Z,55.24
2023-02-05T18:11:43.585Z,55.29
2023-02-05T18:14:11.025Z,55.47
2023-02-05T18:16:38.382Z,55.69
2023-02-05T18:19:05.740Z,55.94
2023-02-05T18:21:33.068Z,56.19
2023-02-05T18:24:00.165Z,56.09
2023-02-05T18:26:27.233Z,56.45
2023-02-05T18:28:54.610Z,56.61
2023-02-05T18:31:21.979Z,56.75
2023-02-05T18:33:51.578Z,57.28
2023-02-05T18:36:18.668Z,57.07
2023-02-05T18:38:45.871Z,57.16
2023-02-05T18:41:25.905Z,57.84
2023-02-05T18:43:56.675Z,57.97
2023-02-05T18:46:25.117Z,58.11
2023-02-05T18:48:54.421Z,58.26
2023-02-05T18:51:23.120Z,58.09
2023-02-05T18:53:50.758Z,58.43
2023-02-05T18:56:27.084Z,58.24
2023-02-05T18:59:02.201Z,58.50
2023-02-05T19:01:32.007Z,58.96
2023-02-05T19:04:07.856Z,59.63
2023-02-05T19:06:35.271Z,59.75
2023-02-05T19:09:03.514Z,59.57
2023-02-05T19:11:31.387Z,59.80
2023-02-05T19:14:04.926Z,59.81
2023-02-05T19:16:34.602Z,60.24
2023-02-05T19:19:03.105Z,59.97
2023-02-05T19:21:31.530Z,60.20
2023-02-05T19:24:05.480Z,60.28
2023-02-05T19:26:35.202Z,60.43
2023-02-05T19:29:09.052Z,60.58
2023-02-05T19:31:37.542Z,60.86
2023-02-05T19:34:05.857Z,61.45
2023-02-05T19:36:33.570Z,60.82
2023-02-05T19:39:02.575Z,61.20
2023-02-05T19:41:31.732Z,61.41
2023-02-05T19:44:02.373Z,61.36
2023-02-05T19:46:33.151Z,61.40
2023-02-05T19:49:05.049Z,61.84
2023-02-05T19:51:32.212Z,61.37
2023-02-05T19:54:03.097Z,61.49
2023-02-05T19:56:30.920Z,61.67
2023-02-05T19:58:58.064Z,61.91
2023-02-05T20:01:32.098Z,62.17
2023-02-05T20:04:11.856Z,62.46
2023-02-05T20:06:40.461Z,63.93
2023-02-05T20:09:10.877Z,64.20
2023-02-05T20:11:43.049Z,63.92
2023-02-05T20:14:11.033Z,63.93
2023-02-05T20:16:40.402Z,63.67
2023-02-05T20:19:10.521Z,63.74
2023-02-05T20:21:38.591Z,63.58
2023-02-05T20:24:07.491Z,63.77
2023-02-05T20:26:36.155Z,63.52
2023-02-05T20:29:23.275Z,63.04
2023-02-05T20:31:52.401Z,63.74
2023-02-05T20:34:30.437Z,63.80
2023-02-05T20:37:04.801Z,63.76
2023-02-05T20:39:34.864Z,63.94
2023-02-05T20:42:02.414Z,64.44
2023-02-05T20:44:33.926Z,64.08
2023-02-05T20:47:01.019Z,64.22
2023-02-05T20:49:28.631Z,64.47
2023-02-05T20:51:55.768Z,64.76
2023-02-05T20:54:23.595Z,64.59
2023-02-05T20:56:57.017Z,64.96
2023-02-05T20:59:24.785Z,64.97
2023-02-05T21:01:52.352Z,64.63
2023-02-05T21:04:22.416Z,64.91
2023-02-05T21:06:49.803Z,64.74
2023-02-05T21:09:17.281Z,64.93
2023-02-05T21:11:44.326Z,64.97
2023-02-05T21:14:11.652Z,65.13
2023-02-05T21:16:40.082Z,65.22
2023-02-05T21:19:08.786Z,65.55
2023-02-05T21:21:37.366Z,65.40
2023-02-05T21:24:08.826Z,65.47
2023-02-05T21:26:47.254Z,65.04
2023-02-05T21:29:18.272Z,64.88
2023-02-05T21:31:50.141Z,65.57
2023-02-05T21:34:21.844Z,65.41
2023-02-05T21:36:49.950Z,65.41
2023-02-05T21:39:20.053Z,65.68
2023-02-05T21:41:47.801Z,65.73
2023-02-05T21:44:14.915Z,66.29
2023-02-05T21:46:42.155Z,65.89
2023-02-05T21:49:11.579Z,66.11
2023-02-05T21:51:38.699Z,66.16
2023-02-05T21:54:06.783Z,65.95
2023-02-05T21:56:42.530Z,66.41
2023-02-05T21:59:11.936Z,66.55
2023-02-05T22:01:39.758Z,66.86
2023-02-05T22:04:14.732Z,66.72
2023-02-05T22:06:42.521Z,66.75
2023-02-05T22:09:13.550Z,67.17
2023-02-05T22:11:41.302Z,67.31
2023-02-05T22:14:10.321Z,66.92
2023-02-05T22:16:39.278Z,66.63
2023-02-05T22:19:07.970Z,67.15
2023-02-05T22:21:41.536Z,67.37
2023-02-05T22:24:13.250Z,66.94
2023-02-05T22:26:41.566Z,67.00
2023-02-05T22:29:12.042Z,67.20
2023-02-05T22:31:39.069Z,67.23
2023-02-05T22:34:06.564Z,67.31
2023-02-05T22:36:35.595Z,67.46
2023-02-05T22:39:05.006Z,67.17
2023-02-05T22:41:35.997Z,67.56
2023-02-05T22:44:05.425Z,67.55
2023-02-05T22:46:37.213Z,68.01
2023-02-05T22:49:05.044Z,67.47
2023-02-05T22:51:37.299Z,67.57
2023-02-05T22:54:04.691Z,67.84
2023-02-05T22:56:32.914Z,67.49
2023-02-05T22:59:02.960Z,67.60
2023-02-05T23:01:34.167Z,68.05
2023-02-05T23:04:03.781Z,68.13
2023-02-05T23:06:36.166Z,68.45
2023-02-05T23:09:11.239Z,67.65
2023-02-05T23:11:38.662Z,68.03
2023-02-05T23:14:07.848Z,68.10
2023-02-05T23:16:39.177Z,68.37
2023-02-05T23:19:20.018Z,68.23
2023-02-05T23:21:48.790Z,68.30
2023-02-05T23:24:17.090Z,68.13
2023-02-05T23:26:48.024Z,68.59
2023-02-05T23:29:16.796Z,68.34
2023-02-05T23:31:43.877Z,68.80
2023-02-05T23:34:12.075Z,68.67
2023-02-05T23:36:39.507Z,68.47
2023-02-05T23:39:06.629Z,68.29
2023-02-05T23:41:36.981Z,68.56
2023-02-05T23:44:08.418Z,68.48
2023-02-05T23:46:36.917Z,68.48
2023-02-05T23:49:05.210Z,68.83
2023-02-05T23:51:32.925Z,68.35
2023-02-05T23:54:00.333Z,68.96
2023-02-05T23:56:27.693Z,68.17
2023-02-05T23:58:55.037Z,68.13
